Terminal Aerodrome Forecast
Issued by NWS

Home | Current Version | Previous Version | Text Only | Print | Product List | Glossary Off
Versions: 1 2 3 4 5 6 7 8 9 10 11 12 13 14 15 16

944
FTUS43 KICT 270522
TAFHUT
TAF
KHUT 270522Z 2706/2806 09005KT P6SM SKC
     FM270900 12006KT P6SM SKC
     FM271400 14008KT 5SM BR SCT014
     FM271600 15011KT P6SM BKN020
     FM271800 17013KT P6SM BKN025
     FM272300 17013KT P6SM FEW022=

USA.gov is the U.S. government's official web portal to all federal, state and local government web resources and services.